Time;durP1;ratioP1;P1;durP2;ratioP2;P2;SDS_P1;SDS_P2;PMS_P1;PMS_P2;Temp;Humidity;BMP_temperature;BMP_pressure;BME280_temperature;BME280_humidity;BME280_pressure;Samples;Min_cycle;Max_cycle;Signal;HPM_P1;HPM_P2
2021/07/12 00:02:07;;;;;;;;;15.40;13.40;;;;;24.46;56.18;98727.97;6287420;27;97391;-65
2021/07/12 00:05:13;;;;;;;;;17.00;15.00;;;;;24.41;56.77;98720.66;6276105;27;97778;-64
2021/07/12 00:08:16;;;;;;;;;15.00;14.50;;;;;24.39;56.34;98722.91;6272108;27;97998;-65
2021/07/12 00:11:19;;;;;;;;;14.40;14.00;;;;;24.33;56.65;98731.63;6279908;27;97456;-65
2021/07/12 00:14:27;;;;;;;;;14.40;13.40;;;;;24.23;56.25;98721.69;6278365;27;97246;-64
2021/07/12 00:17:31;;;;;;;;;12.00;11.60;;;;;24.19;56.98;98723.44;6275835;27;97108;-64
2021/07/12 00:20:35;;;;;;;;;12.00;11.60;;;;;24.15;57.14;98725.16;6268840;27;97319;-65
2021/07/12 00:23:38;;;;;;;;;16.00;14.00;;;;;24.17;56.74;98715.50;6267185;27;97112;-65
2021/07/12 00:26:41;;;;;;;;;15.60;14.00;;;;;24.18;56.81;98721.81;6287476;27;97768;-64
2021/07/12 00:29:44;;;;;;;;;13.60;13.00;;;;;24.19;56.38;98711.63;6285981;27;97460;-64
2021/07/12 00:32:50;;;;;;;;;15.60;14.60;;;;;24.20;56.64;98718.72;6284096;27;96614;-64
2021/07/12 00:35:54;;;;;;;;;13.20;12.20;;;;;24.14;56.72;98715.28;6270266;27;97243;-64
2021/07/12 00:38:59;;;;;;;;;16.50;15.00;;;;;24.11;56.87;98713.16;6268248;27;96851;-64
2021/07/12 00:42:03;;;;;;;;;15.00;12.60;;;;;24.05;56.67;98720.72;6278826;27;97579;-64
2021/07/12 00:45:10;;;;;;;;;13.00;12.00;;;;;24.00;56.89;98720.84;6277735;27;97483;-64
2021/07/12 00:48:24;;;;;;;;;14.20;12.60;;;;;23.99;56.95;98719.25;6276876;27;96916;-65
2021/07/12 00:51:28;;;;;;;;;14.00;13.80;;;;;24.00;57.16;98712.59;6284051;27;97524;-64
2021/07/12 00:54:32;;;;;;;;;13.40;13.00;;;;;24.04;57.37;98719.09;6284823;27;96965;-65
2021/07/12 00:57:35;;;;;;;;;13.60;13.00;;;;;24.08;57.11;98708.28;6283866;27;97974;-65
2021/07/12 01:00:41;;;;;;;;;15.60;15.00;;;;;23.99;57.10;98704.66;6275999;27;96728;-65
2021/07/12 01:03:45;;;;;;;;;15.00;15.00;;;;;24.03;57.25;98713.91;6285731;27;98379;-64
2021/07/12 01:06:49;;;;;;;;;16.00;15.00;;;;;23.97;57.64;98704.97;6284309;27;97503;-64
2021/07/12 01:09:54;;;;;;;;;16.00;14.00;;;;;23.98;57.72;98708.53;6291675;27;97237;-65
2021/07/12 01:13:24;;;;;;;;;16.20;16.00;;;;;23.95;57.80;98709.97;6283340;27;97568;-65
2021/07/12 01:16:51;;;;;;;;;20.40;17.00;;;;;23.88;58.07;98704.09;6243224;27;97431;-63
2021/07/12 01:20:46;;;;;;;;;18.00;18.00;;;;;23.84;57.86;98705.03;6256375;27;98179;-62
2021/07/12 01:24:38;;;;;;;;;19.00;17.00;;;;;23.82;57.96;98705.34;6283221;27;96601;-64
2021/07/12 01:28:27;;;;;;;;;20.00;17.80;;;;;23.82;57.91;98721.03;6281430;27;97460;-64
2021/07/12 01:32:02;;;;;;;;;22.00;17.60;;;;;23.81;57.77;98713.91;6233377;27;98034;-65
2021/07/12 01:35:18;;;;;;;;;18.00;17.00;;;;;23.68;58.04;98716.41;6281620;27;96659;-64
2021/07/12 01:38:33;;;;;;;;;15.00;14.00;;;;;23.64;58.08;98712.66;6284162;27;97361;-64
2021/07/12 01:41:49;;;;;;;;;17.60;16.40;;;;;23.63;57.84;98711.03;6267173;27;97683;-64
2021/07/12 01:44:59;;;;;;;;;15.40;14.00;;;;;23.48;57.92;98685.78;6279285;27;96813;-66
2021/07/12 01:48:12;;;;;;;;;14.20;14.00;;;;;23.66;57.82;98704.06;6269314;27;97853;-65
2021/07/12 01:51:31;;;;;;;;;14.60;14.00;;;;;23.64;57.24;98707.16;6290375;27;97971;-64
2021/07/12 01:54:39;;;;;;;;;12.00;11.80;;;;;23.70;57.19;98713.34;6281736;27;97063;-64
2021/07/12 01:57:52;;;;;;;;;16.20;15.20;;;;;23.74;57.17;98717.09;6287091;27;97719;-63
2021/07/12 02:01:00;;;;;;;;;13.00;12.60;;;;;23.70;57.17;98711.38;6269148;27;97673;-64
2021/07/12 02:04:05;;;;;;;;;15.00;14.00;;;;;23.62;56.91;98709.38;6286248;27;97111;-63
2021/07/12 02:07:13;;;;;;;;;15.00;13.00;;;;;23.59;57.14;98698.19;6278426;27;97554;-64
2021/07/12 02:10:21;;;;;;;;;15.00;13.60;;;;;23.57;57.38;98703.19;6281320;27;97457;-65
2021/07/12 02:13:35;;;;;;;;;16.40;14.00;;;;;23.51;57.25;98685.97;6254089;27;98332;-64
2021/07/12 02:16:49;;;;;;;;;15.00;14.00;;;;;23.54;57.39;98699.13;6276658;27;97551;-64
2021/07/12 02:19:54;;;;;;;;;13.00;12.00;;;;;23.55;57.49;98694.44;6253063;27;97752;-64
2021/07/12 02:23:02;;;;;;;;;14.00;13.40;;;;;23.57;57.32;98694.94;6276914;27;97335;-65
2021/07/12 02:26:06;;;;;;;;;12.00;12.00;;;;;23.51;57.65;98685.16;6284292;27;96586;-64
2021/07/12 02:29:12;;;;;;;;;11.00;10.60;;;;;23.48;57.59;98685.78;6282044;27;97512;-63
2021/07/12 02:32:18;;;;;;;;;14.20;12.60;;;;;23.47;57.72;98684.16;6268346;27;97481;-64
2021/07/12 02:35:24;;;;;;;;;15.20;12.00;;;;;23.48;57.31;98686.59;6278127;27;96959;-64
2021/07/12 02:38:30;;;;;;;;;14.00;12.00;;;;;23.51;56.96;98688.72;6259836;27;97916;-63
2021/07/12 02:41:34;;;;;;;;;13.00;12.80;;;;;23.55;57.51;98694.44;6271122;27;96619;-63
2021/07/12 02:44:41;;;;;;;;;10.60;10.60;;;;;23.53;57.26;98692.00;6256672;27;99810;-64
2021/07/12 02:47:47;;;;;;;;;15.40;13.40;;;;;23.51;56.82;98685.16;6267874;27;96678;-64
2021/07/12 02:50:54;;;;;;;;;12.00;12.00;;;;;23.58;56.98;98689.13;6275631;27;96753;-63
2021/07/12 02:54:03;;;;;;;;;11.00;11.00;;;;;23.58;57.25;98680.88;6265387;27;96726;-64
2021/07/12 02:57:08;;;;;;;;;13.60;12.40;;;;;23.58;57.40;98696.56;6283019;27;97026;-64
2021/07/12 03:00:13;;;;;;;;;15.40;14.40;;;;;23.54;57.08;98693.63;6265858;27;100649;-64
2021/07/12 03:03:17;;;;;;;;;12.00;12.00;;;;;23.53;57.25;98704.94;6278159;27;96779;-63
2021/07/12 03:06:28;;;;;;;;;12.60;12.60;;;;;23.48;57.56;98707.81;6278492;27;96615;-64
2021/07/12 03:09:37;;;;;;;;;11.00;11.00;;;;;23.56;57.19;98715.31;6277431;27;97433;-64
2021/07/12 03:12:47;;;;;;;;;12.75;10.25;;;;;23.61;57.42;98707.75;6275122;27;97486;-64
2021/07/12 03:15:51;;;;;;;;;13.00;12.00;;;;;23.64;56.97;98709.09;6282914;27;96581;-64
2021/07/12 03:18:58;;;;;;;;;13.40;11.80;;;;;23.64;57.21;98706.34;6284933;27;97484;-62
2021/07/12 03:22:05;;;;;;;;;13.60;13.00;;;;;23.66;57.50;98702.13;6285719;27;97398;-63
2021/07/12 03:25:22;;;;;;;;;12.80;10.00;;;;;23.67;56.97;98703.75;6279466;27;97247;-65
2021/07/12 03:28:29;;;;;;;;;13.00;12.00;;;;;23.71;57.07;98701.19;6268926;27;96764;-64
2021/07/12 03:31:33;;;;;;;;;13.80;13.00;;;;;23.74;57.37;98681.31;6269933;27;97647;-64
2021/07/12 03:34:39;;;;;;;;;11.00;11.00;;;;;23.61;57.06;98666.47;6273082;27;97617;-65
2021/07/12 03:37:43;;;;;;;;;12.00;11.00;;;;;23.83;57.09;98695.13;6265218;27;97203;-64
2021/07/12 03:40:50;;;;;;;;;14.00;11.60;;;;;23.83;57.14;98703.41;6274029;27;96542;-64
2021/07/12 03:43:58;;;;;;;;;13.50;12.00;;;;;23.88;57.03;98712.34;6281551;27;97363;-63
2021/07/12 03:47:02;;;;;;;;;13.00;12.00;;;;;23.91;56.74;98711.72;6283664;27;98504;-64
2021/07/12 03:50:10;;;;;;;;;14.00;13.40;;;;;23.93;57.15;98697.66;6285131;27;98052;-64
2021/07/12 03:53:13;;;;;;;;;11.75;10.75;;;;;24.03;56.77;98702.91;6271501;27;97868;-64
2021/07/12 03:56:18;;;;;;;;;11.20;11.00;;;;;24.02;56.48;98691.06;6277838;27;99494;-65
2021/07/12 03:59:21;;;;;;;;;12.00;11.60;;;;;24.10;56.62;98686.72;6280700;27;97079;-64
2021/07/12 04:02:25;;;;;;;;;11.80;10.80;;;;;24.17;56.56;98689.91;6280297;27;97345;-65
2021/07/12 04:05:28;;;;;;;;;11.40;11.00;;;;;24.23;56.37;98696.91;6267726;27;99718;-64
2021/07/12 04:08:31;;;;;;;;;12.00;11.60;;;;;24.25;56.11;98686.34;6276887;27;97838;-64
2021/07/12 04:11:36;;;;;;;;;13.00;13.00;;;;;24.26;56.18;98690.75;6277479;27;97703;-64
2021/07/12 04:14:39;;;;;;;;;12.00;10.00;;;;;24.23;55.62;98685.06;6282379;27;97274;-63
2021/07/12 04:17:44;;;;;;;;;11.00;10.00;;;;;24.19;55.37;98695.09;6271468;27;97470;-65
2021/07/12 04:20:48;;;;;;;;;12.00;11.00;;;;;24.23;55.07;98690.56;6276626;27;97640;-64
2021/07/12 04:23:52;;;;;;;;;11.00;9.60;;;;;24.28;54.98;98693.19;6276919;27;98449;-63
2021/07/12 04:26:56;;;;;;;;;11.50;11.00;;;;;24.32;55.23;98691.44;6272078;27;96526;-64
2021/07/12 04:30:00;;;;;;;;;12.00;11.00;;;;;24.36;55.35;98687.72;6265166;27;96720;-63
2021/07/12 04:33:03;;;;;;;;;10.80;10.00;;;;;24.42;55.32;98703.00;6270125;27;97269;-63
2021/07/12 04:36:06;;;;;;;;;13.00;11.40;;;;;24.40;55.09;98712.69;6264312;27;96825;-63
2021/07/12 04:39:09;;;;;;;;;10.50;10.50;;;;;24.40;55.27;98719.03;6263748;27;97338;-64
2021/07/12 04:42:14;;;;;;;;;11.00;11.00;;;;;24.47;55.21;98722.16;6269425;27;96878;-63
2021/07/12 04:45:18;;;;;;;;;10.00;10.00;;;;;24.58;55.32;98722.69;6271038;27;97422;-63
2021/07/12 04:48:25;;;;;;;;;13.50;13.00;;;;;24.58;54.99;98708.91;6270001;27;96625;-64
2021/07/12 04:51:28;;;;;;;;;13.40;12.00;;;;;24.60;55.17;98717.66;6274772;27;99038;-64
2021/07/12 04:54:32;;;;;;;;;12.80;12.00;;;;;24.57;55.41;98713.59;6266310;27;96792;-63
2021/07/12 04:57:36;;;;;;;;;13.75;13.00;;;;;24.57;55.09;98708.09;6273372;27;96560;-63
2021/07/12 05:00:40;;;;;;;;;12.80;12.80;;;;;24.71;54.89;98712.69;6269873;27;96967;-62
2021/07/12 05:03:44;;;;;;;;;14.00;13.60;;;;;24.77;54.90;98712.22;6276796;27;97316;-64
2021/07/12 05:06:47;;;;;;;;;12.00;10.75;;;;;24.84;54.48;98711.75;6266156;27;96746;-63
2021/07/12 05:09:51;;;;;;;;;13.75;12.75;;;;;24.94;54.56;98717.81;6266890;27;97735;-65
2021/07/12 05:12:55;;;;;;;;;12.00;11.00;;;;;24.98;53.84;98705.00;6273802;27;97181;-64
2021/07/12 05:15:59;;;;;;;;;13.00;12.00;;;;;24.98;53.69;98704.19;6283416;27;97604;-64
2021/07/12 05:19:02;;;;;;;;;15.00;15.00;;;;;25.11;54.18;98696.94;6279876;27;96813;-63
2021/07/12 05:22:06;;;;;;;;;14.40;13.00;;;;;25.09;54.14;98701.97;6282028;27;96501;-64
2021/07/12 05:25:10;;;;;;;;;13.80;13.00;;;;;25.11;54.10;98700.53;6280491;27;97461;-63
2021/07/12 05:28:15;;;;;;;;;14.00;13.50;;;;;25.10;53.76;98700.84;6281960;27;97337;-64
2021/07/12 05:31:18;;;;;;;;;13.00;12.00;;;;;25.12;53.81;98702.13;6274225;27;97538;-64
2021/07/12 05:34:21;;;;;;;;;17.00;16.00;;;;;25.14;53.58;98696.28;6273059;27;97160;-65
2021/07/12 05:37:24;;;;;;;;;15.00;13.00;;;;;25.18;53.72;98700.84;6277822;27;98142;-64
2021/07/12 05:40:27;;;;;;;;;18.50;15.25;;;;;25.30;53.85;98698.28;6268529;27;97365;-64
2021/07/12 05:43:32;;;;;;;;;13.20;12.20;;;;;25.37;53.72;98695.84;6277608;27;98616;-63
2021/07/12 05:46:35;;;;;;;;;13.75;12.25;;;;;25.46;53.76;98690.34;6274074;27;97078;-64
2021/07/12 05:49:40;;;;;;;;;14.00;14.00;;;;;25.47;53.56;98697.47;6284772;27;97592;-63
2021/07/12 05:52:43;;;;;;;;;14.20;13.40;;;;;25.43;53.77;98694.56;6279239;27;97692;-65
2021/07/12 05:55:47;;;;;;;;;15.40;14.80;;;;;25.51;53.67;98692.13;6281356;27;97436;-63
2021/07/12 05:58:51;;;;;;;;;16.00;14.00;;;;;25.57;53.70;98702.69;6275782;27;97633;-63
2021/07/12 06:01:54;;;;;;;;;15.67;14.67;;;;;25.69;53.77;98713.94;6280239;27;97455;-63
2021/07/12 06:04:58;;;;;;;;;16.20;15.00;;;;;25.84;53.33;98704.34;6279520;27;98281;-64
2021/07/12 06:08:02;;;;;;;;;18.00;15.00;;;;;25.97;53.30;98697.00;6276229;27;96717;-64
2021/07/12 06:11:07;;;;;;;;;19.50;16.50;;;;;26.12;53.16;98702.00;6285839;27;98382;-64
2021/07/12 06:14:12;;;;;;;;;16.00;14.60;;;;;26.34;53.24;98693.53;6271642;27;96691;-64
2021/07/12 06:17:15;;;;;;;;;16.40;15.40;;;;;26.61;53.27;98693.13;6268418;27;97262;-64
2021/07/12 06:20:18;;;;;;;;;15.00;14.00;;;;;26.84;52.29;98701.13;6274028;27;97924;-65
2021/07/12 06:23:22;;;;;;;;;16.20;16.00;;;;;26.99;52.43;98706.97;6275105;27;96561;-64
2021/07/12 06:26:25;;;;;;;;;17.00;16.00;;;;;27.24;51.98;98701.59;6274371;27;96507;-64
2021/07/12 06:29:29;;;;;;;;;20.00;18.00;;;;;27.49;51.75;98698.69;6276471;27;97454;-63
2021/07/12 06:32:33;;;;;;;;;20.00;18.00;;;;;27.57;50.67;98685.91;6283677;27;97171;-63
2021/07/12 06:35:38;;;;;;;;;16.00;15.20;;;;;27.93;50.43;98705.50;6274158;27;98060;-63
2021/07/12 06:38:42;;;;;;;;;17.00;16.60;;;;;28.22;50.10;98715.66;6274611;27;97675;-64
2021/07/12 06:41:45;;;;;;;;;17.00;15.60;;;;;28.27;50.05;98704.38;6275190;27;97354;-64
2021/07/12 06:44:50;;;;;;;;;20.00;17.00;;;;;28.33;49.12;98705.78;6267698;27;98452;-65
2021/07/12 06:47:53;;;;;;;;;16.00;15.80;;;;;28.55;49.00;98696.22;6271050;27;96833;-64
2021/07/12 06:50:57;;;;;;;;;15.00;15.00;;;;;28.73;48.98;98688.53;6281645;27;97467;-63
2021/07/12 06:54:09;;;;;;;;;17.20;15.00;;;;;28.77;49.21;98684.72;6285135;27;97133;-63
2021/07/12 06:57:12;;;;;;;;;18.40;18.00;;;;;28.88;48.39;98681.50;6281751;27;97739;-63
2021/07/12 07:00:17;;;;;;;;;20.40;18.40;;;;;28.97;48.79;98655.22;6282625;27;97043;-65
2021/07/12 07:03:34;;;;;;;;;19.40;17.00;;;;;29.13;49.32;98674.72;6269681;27;97822;-63
2021/07/12 07:06:37;;;;;;;;;18.00;18.00;;;;;29.18;48.08;98666.16;6276052;27;97423;-63
2021/07/12 07:09:40;;;;;;;;;18.80;17.00;;;;;29.35;47.73;98676.25;6274587;27;97987;-64
2021/07/12 07:12:44;;;;;;;;;16.00;16.00;;;;;29.40;47.49;98696.25;6273584;27;97486;-64
2021/07/12 07:15:48;;;;;;;;;17.00;15.00;;;;;29.60;47.63;98689.72;6274327;27;98102;-62
2021/07/12 07:18:51;;;;;;;;;14.00;14.00;;;;;29.90;47.15;98681.91;6274572;27;97102;-64
2021/07/12 07:21:55;;;;;;;;;16.00;15.00;;;;;30.17;45.92;98688.59;6285122;27;96722;-63
2021/07/12 07:25:12;;;;;;;;;14.40;13.00;;;;;30.32;44.82;98693.38;6276293;27;97252;-63
2021/07/12 07:28:18;;;;;;;;;14.00;14.00;;;;;30.46;44.65;98696.56;6268852;27;97515;-64
2021/07/12 07:31:23;;;;;;;;;15.60;13.60;;;;;30.66;44.48;98708.59;6267009;27;96897;-62
2021/07/12 07:34:26;;;;;;;;;15.00;14.00;;;;;30.66;44.35;98700.25;6275192;27;97101;-63
2021/07/12 07:37:29;;;;;;;;;13.40;13.40;;;;;30.58;44.34;98695.69;6277315;27;96669;-64
2021/07/12 07:40:32;;;;;;;;;14.75;13.75;;;;;30.48;44.48;98704.56;6282083;27;97528;-64
2021/07/12 07:43:36;;;;;;;;;13.20;12.80;;;;;30.30;45.00;98708.81;6275991;27;97469;-62
2021/07/12 07:46:41;;;;;;;;;16.00;14.40;;;;;30.09;44.91;98715.41;6281465;27;96735;-63
2021/07/12 07:49:44;;;;;;;;;17.00;16.00;;;;;30.00;45.59;98720.31;6280552;27;96649;-62
2021/07/12 07:52:48;;;;;;;;;14.00;14.00;;;;;29.92;45.13;98715.69;6279230;27;97616;-63
2021/07/12 07:55:51;;;;;;;;;15.00;14.40;;;;;29.65;45.56;98720.03;6278451;27;97393;-62
2021/07/12 07:58:54;;;;;;;;;15.33;14.33;;;;;29.50;46.24;98709.66;6278290;27;97304;-63
2021/07/12 08:01:59;;;;;;;;;14.40;14.00;;;;;29.38;46.00;98706.09;6276714;27;96778;-63
2021/07/12 08:05:23;;;;;;;;;13.00;12.00;;;;;29.21;46.18;98709.91;6278347;27;98704;-63
2021/07/12 08:08:26;;;;;;;;;13.00;13.00;;;;;29.20;46.22;98711.88;6276258;27;98414;-63
2021/07/12 08:11:30;;;;;;;;;12.00;12.00;;;;;29.14;45.90;98710.47;6279248;27;96756;-63
2021/07/12 08:14:33;;;;;;;;;11.00;10.25;;;;;29.04;45.20;98705.41;6283633;27;96711;-63
2021/07/12 08:17:39;;;;;;;;;14.00;12.00;;;;;28.92;45.79;98710.97;6272678;27;97272;-64
2021/07/12 08:20:45;;;;;;;;;14.00;13.00;;;;;28.81;46.71;98709.81;6266247;27;99521;-64
2021/07/12 08:23:48;;;;;;;;;13.60;13.60;;;;;28.80;46.50;98714.53;6272665;27;96861;-63
2021/07/12 08:26:52;;;;;;;;;13.20;13.00;;;;;28.91;46.51;98717.66;6274558;27;97660;-63
2021/07/12 08:29:55;;;;;;;;;12.40;12.40;;;;;28.94;46.76;98728.06;6273364;27;96800;-64
2021/07/12 08:32:59;;;;;;;;;15.00;14.00;;;;;28.91;47.09;98720.44;6275501;27;97422;-63
2021/07/12 08:36:04;;;;;;;;;14.00;13.00;;;;;28.94;47.18;98716.97;6263656;27;97420;-63
2021/07/12 08:39:07;;;;;;;;;16.00;14.00;;;;;28.87;46.50;98715.94;6258049;27;99784;-64
2021/07/12 08:42:12;;;;;;;;;14.75;13.00;;;;;28.78;46.98;98716.06;6252622;27;99947;-63
2021/07/12 08:45:15;;;;;;;;;15.00;13.75;;;;;28.79;46.96;98720.41;6270824;27;97210;-64
2021/07/12 08:48:20;;;;;;;;;15.00;14.00;;;;;28.81;46.41;98726.44;6284276;27;96495;-63
2021/07/12 08:51:23;;;;;;;;;15.00;15.00;;;;;28.89;47.22;98735.81;6260709;27;99465;-64
2021/07/12 08:54:26;;;;;;;;;17.00;15.75;;;;;28.97;46.90;98732.13;6272345;27;97437;-64
2021/07/12 08:57:30;;;;;;;;;15.00;14.40;;;;;28.99;47.14;98738.94;6272326;27;97247;-64
2021/07/12 09:00:42;;;;;;;;;15.00;14.00;;;;;29.10;46.95;98742.88;6275147;27;96795;-64
2021/07/12 09:03:52;;;;;;;;;17.00;16.40;;;;;28.98;46.74;98742.09;6273168;27;96808;-63
2021/07/12 09:07:12;;;;;;;;;15.00;14.00;;;;;28.82;47.29;98739.97;6259235;27;98823;-64
2021/07/12 09:10:21;;;;;;;;;15.60;14.00;;;;;28.86;46.90;98751.19;6276701;27;97869;-63
2021/07/12 09:13:43;;;;;;;;;16.00;15.00;;;;;28.74;47.67;98759.50;6269018;27;97647;-65
2021/07/12 09:16:48;;;;;;;;;18.00;16.00;;;;;28.54;47.29;98775.03;6281128;27;96971;-65
2021/07/12 09:19:54;;;;;;;;;16.00;15.00;;;;;28.58;47.25;98786.25;6273841;27;97179;-64
2021/07/12 09:22:59;;;;;;;;;16.75;16.75;;;;;28.57;48.33;98790.19;6280090;27;98353;-66
2021/07/12 09:26:04;;;;;;;;;15.00;14.00;;;;;28.50;48.40;98801.81;6267387;27;97456;-65
2021/07/12 09:29:07;;;;;;;;;19.00;17.60;;;;;28.50;49.17;98801.81;6266747;27;97804;-66
2021/07/12 09:32:12;;;;;;;;;17.40;16.40;;;;;28.51;48.96;98789.56;6280937;27;96571;-63
2021/07/12 09:35:19;;;;;;;;;19.00;17.50;;;;;28.55;50.18;98768.31;6281163;27;97444;-63
2021/07/12 09:38:31;;;;;;;;;16.75;16.00;;;;;28.61;49.54;98747.53;6266682;27;96730;-63
2021/07/12 09:41:34;;;;;;;;;16.50;15.75;;;;;28.71;48.19;98757.38;6273732;27;97339;-64
2021/07/12 09:44:41;;;;;;;;;16.20;15.40;;;;;28.78;48.68;98763.22;6271551;27;98475;-64
2021/07/12 09:47:46;;;;;;;;;17.50;16.50;;;;;28.67;48.14;98754.50;6285791;27;97502;-63
2021/07/12 09:50:51;;;;;;;;;17.00;15.00;;;;;28.69;48.29;98757.72;6273089;27;96623;-64
2021/07/12 09:53:54;;;;;;;;;14.00;13.00;;;;;28.70;48.89;98756.56;6275098;27;99521;-64
2021/07/12 09:57:02;;;;;;;;;16.00;16.00;;;;;28.69;49.01;98760.50;6276139;27;97238;-64
2021/07/12 10:00:09;;;;;;;;;17.40;16.40;;;;;28.65;48.41;98765.13;6279548;27;98136;-62
2021/07/12 10:03:16;;;;;;;;;16.75;15.00;;;;;28.55;48.17;98771.09;6273042;27;98169;-62
2021/07/12 10:06:30;;;;;;;;;15.25;14.00;;;;;28.52;48.13;98771.78;6278559;27;97794;-63
2021/07/12 10:09:33;;;;;;;;;14.00;12.00;;;;;28.50;48.42;98764.94;6285689;27;97200;-62
2021/07/12 10:12:37;;;;;;;;;15.60;12.60;;;;;28.48;48.09;98758.97;6279672;27;96976;-62
2021/07/12 10:15:40;;;;;;;;;15.00;14.00;;;;;28.35;47.77;98758.91;6277123;27;97095;-62
2021/07/12 10:18:44;;;;;;;;;14.00;13.00;;;;;28.27;48.73;98765.34;6271942;27;96665;-62
2021/07/12 10:21:51;;;;;;;;;16.00;14.00;;;;;28.12;48.65;98756.84;6273217;27;96645;-61
2021/07/12 10:25:06;;;;;;;;;15.50;14.50;;;;;28.01;48.86;98765.56;6281828;27;97694;-62
2021/07/12 10:28:37;;;;;;;;;12.00;11.40;;;;;27.87;48.37;98767.78;6264756;27;96876;-62
2021/07/12 10:32:05;;;;;;;;;12.00;11.00;;;;;27.81;49.11;98771.91;6275220;27;97167;-62
2021/07/12 10:35:09;;;;;;;;;10.60;9.60;;;;;27.71;47.92;98769.53;6284887;27;96500;-62
2021/07/12 10:38:15;;;;;;;;;10.00;10.00;;;;;27.68;47.39;98774.94;6277532;27;96733;-63
2021/07/12 10:41:21;;;;;;;;;10.00;10.00;;;;;27.58;47.81;98771.44;6286751;27;96570;-63
2021/07/12 10:44:24;;;;;;;;;12.00;11.50;;;;;27.62;48.47;98765.22;6267053;27;97461;-63
2021/07/12 10:47:41;;;;;;;;;12.00;10.00;;;;;27.55;48.46;98760.22;6280476;27;97412;-63
2021/07/12 10:50:50;;;;;;;;;11.00;9.00;;;;;27.56;47.97;98761.84;6282468;27;99496;-63
2021/07/12 10:54:01;;;;;;;;;9.75;9.00;;;;;27.54;48.84;98753.88;6268327;27;96728;-63
2021/07/12 10:57:16;;;;;;;;;11.00;10.00;;;;;27.52;48.55;98734.00;6281053;27;96758;-63
2021/07/12 11:00:19;;;;;;;;;10.40;9.60;;;;;27.54;49.00;98736.44;6284907;27;96872;-63
2021/07/12 11:03:35;;;;;;;;;13.00;11.00;;;;;27.49;49.45;98744.94;6277111;27;97352;-63
2021/07/12 11:06:52;;;;;;;;;13.00;13.00;;;;;27.43;49.94;98741.53;6284568;27;96695;-62
2021/07/12 11:10:03;;;;;;;;;12.00;11.00;;;;;27.42;50.56;98726.06;6273416;27;96653;-64
2021/07/12 11:13:11;;;;;;;;;12.00;11.00;;;;;27.39;50.30;98723.97;6282734;27;97790;-64
2021/07/12 11:16:16;;;;;;;;;13.00;12.00;;;;;27.34;51.66;98737.19;6281220;27;97499;-62
2021/07/12 11:19:21;;;;;;;;;12.25;11.50;;;;;27.30;51.09;98748.13;6283790;27;96646;-62
2021/07/12 11:22:25;;;;;;;;;10.60;10.00;;;;;27.15;52.00;98757.81;6278067;27;97149;-62
2021/07/12 11:25:40;;;;;;;;;10.60;10.00;;;;;27.12;51.45;98752.16;6279001;27;96648;-62
2021/07/12 11:28:45;;;;;;;;;11.00;10.00;;;;;27.08;50.94;98749.22;6284615;27;97456;-63
2021/07/12 11:31:51;;;;;;;;;14.00;11.00;;;;;27.01;51.75;98742.59;6283689;27;96880;-62
2021/07/12 11:34:55;;;;;;;;;13.60;12.60;;;;;26.96;51.85;98742.78;6268142;27;97524;-62
2021/07/12 11:37:59;;;;;;;;;10.00;10.00;;;;;26.98;51.74;98734.94;6282469;27;97192;-64
2021/07/12 11:41:08;;;;;;;;;14.00;13.00;;;;;26.75;52.70;98742.69;6275098;27;97418;-64
2021/07/12 11:44:15;;;;;;;;;15.00;14.00;;;;;26.81;52.77;98754.38;6269863;27;96779;-63
2021/07/12 11:47:23;;;;;;;;;15.60;14.60;;;;;26.72;53.34;98755.22;6273165;27;97022;-64
2021/07/12 11:50:29;;;;;;;;;16.00;15.00;;;;;26.69;53.75;98763.34;6275642;27;97384;-64
2021/07/12 11:53:32;;;;;;;;;18.00;16.00;;;;;26.64;54.57;98771.81;6271382;27;96706;-64
2021/07/12 11:56:37;;;;;;;;;14.75;14.00;;;;;26.52;54.65;98758.69;6284696;27;96633;-64
2021/07/12 11:59:40;;;;;;;;;16.60;14.00;;;;;26.51;54.71;98759.03;6273876;27;97514;-63
2021/07/12 12:02:44;;;;;;;;;14.00;13.00;;;;;26.39;54.86;98754.16;6267551;27;96914;-65
2021/07/12 12:05:47;;;;;;;;;15.00;15.00;;;;;26.41;54.42;98746.38;6263054;27;96608;-64
2021/07/12 12:08:57;;;;;;;;;15.40;14.60;;;;;26.33;54.28;98761.03;6267080;27;96625;-64
2021/07/12 12:12:02;;;;;;;;;15.75;14.00;;;;;26.28;54.94;98741.84;6280207;27;96754;-65
2021/07/12 12:15:09;;;;;;;;;15.25;15.00;;;;;26.29;54.51;98726.91;6270189;27;97701;-64
2021/07/12 12:18:15;;;;;;;;;15.00;15.00;;;;;26.29;54.62;98722.16;6284129;27;99639;-64
2021/07/12 12:21:18;;;;;;;;;18.00;16.00;;;;;26.28;54.60;98737.13;6270932;27;97276;-63
2021/07/12 12:24:21;;;;;;;;;18.00;17.00;;;;;26.22;54.94;98771.59;6274683;27;97464;-64
2021/07/12 12:27:26;;;;;;;;;14.33;13.33;;;;;25.87;55.37;98801.16;6280917;27;97298;-63
2021/07/12 12:30:30;;;;;;;;;14.00;13.00;;;;;25.50;55.89;98798.16;6269976;27;97774;-65
2021/07/12 12:33:35;;;;;;;;;10.00;9.00;;;;;25.22;55.23;98773.56;6280868;27;97727;-63
2021/07/12 12:36:42;;;;;;;;;11.00;10.00;;;;;25.29;55.72;98775.84;6276550;27;97573;-64
2021/07/12 12:39:46;;;;;;;;;10.40;9.60;;;;;25.31;55.85;98779.13;6266598;27;96950;-64
2021/07/12 12:42:52;;;;;;;;;11.20;10.60;;;;;25.33;56.34;98763.03;6267376;27;97751;-65
2021/07/12 12:46:11;;;;;;;;;9.50;9.50;;;;;25.41;56.87;98752.00;6274014;27;97518;-64
2021/07/12 12:49:18;;;;;;;;;11.60;11.00;;;;;25.43;56.27;98737.91;6278768;27;97906;-64
2021/07/12 12:52:21;;;;;;;;;9.20;9.00;;;;;25.41;55.85;98721.66;6275465;27;97194;-64
2021/07/12 12:55:27;;;;;;;;;12.00;11.00;;;;;25.36;55.44;98734.81;6273041;27;96747;-64
2021/07/12 12:58:32;;;;;;;;;10.00;9.00;;;;;25.26;55.51;98735.94;6273637;27;97451;-64
2021/07/12 13:01:37;;;;;;;;;9.00;8.00;;;;;25.25;55.37;98725.22;6276433;27;96826;-63
2021/07/12 13:04:43;;;;;;;;;9.40;8.40;;;;;25.21;55.50;98721.47;6303504;27;98545;-63
2021/07/12 13:07:50;;;;;;;;;10.00;9.00;;;;;25.19;55.45;98713.50;6283786;27;96725;-63
2021/07/12 13:10:57;;;;;;;;;6.00;6.00;;;;;25.21;55.59;98713.19;6282905;27;96729;-64
2021/07/12 13:14:02;;;;;;;;;10.00;8.00;;;;;25.23;55.17;98716.44;6285837;27;97468;-63
2021/07/12 13:17:07;;;;;;;;;8.00;7.20;;;;;25.26;54.52;98710.28;6277226;27;97453;-63
2021/07/12 13:20:14;;;;;;;;;6.25;6.00;;;;;25.26;54.80;98724.09;6276427;27;97610;-63
2021/07/12 13:23:27;;;;;;;;;9.00;8.50;;;;;25.11;54.74;98733.63;6284876;27;96734;-63
2021/07/12 13:26:31;;;;;;;;;7.00;7.00;;;;;24.94;55.64;98747.34;6284000;27;96622;-64
2021/07/12 13:29:35;;;;;;;;;10.40;9.40;;;;;24.72;56.18;98759.25;6281987;27;96859;-64
2021/07/12 13:32:40;;;;;;;;;9.00;8.50;;;;;24.66;56.29;98763.25;6270270;27;98090;-63
2021/07/12 13:35:43;;;;;;;;;10.00;9.00;;;;;24.68;55.89;98773.97;6262852;27;97484;-64
2021/07/12 13:38:46;;;;;;;;;10.00;10.00;;;;;24.69;56.26;98753.53;6269775;27;98187;-65
2021/07/12 13:41:50;;;;;;;;;9.25;9.00;;;;;24.74;57.14;98734.91;6269518;27;97388;-63
2021/07/12 13:44:55;;;;;;;;;7.00;7.00;;;;;24.80;55.89;98743.84;6263635;27;98112;-64
2021/07/12 13:47:59;;;;;;;;;7.00;7.00;;;;;24.87;56.23;98745.06;6262053;27;98561;-65
2021/07/12 13:51:02;;;;;;;;;8.00;7.00;;;;;24.93;56.04;98741.00;6258900;27;97074;-65
2021/07/12 13:54:07;;;;;;;;;7.50;7.25;;;;;24.95;55.41;98744.28;6264059;27;97723;-64
2021/07/12 13:57:10;;;;;;;;;10.50;9.50;;;;;25.02;55.86;98741.06;6276348;27;97659;-64
2021/07/12 14:00:17;;;;;;;;;8.00;7.00;;;;;24.98;55.72;98718.00;6275818;27;96716;-65
2021/07/12 14:03:20;;;;;;;;;8.00;8.00;;;;;25.13;55.95;98731.34;6260784;27;97015;-64
2021/07/12 14:06:23;;;;;;;;;8.60;8.60;;;;;24.88;56.03;98674.97;6264242;27;96831;-64
2021/07/12 14:09:27;;;;;;;;;8.00;7.40;;;;;25.28;56.18;98719.03;6266427;27;97832;-64
2021/07/12 14:12:30;;;;;;;;;9.25;8.25;;;;;25.31;56.19;98693.56;6273993;27;97374;-64
2021/07/12 14:15:35;;;;;;;;;7.20;7.20;;;;;25.36;55.90;98682.38;6265417;27;97731;-64
2021/07/12 14:18:50;;;;;;;;;8.00;7.00;;;;;25.28;55.88;98680.41;6281417;27;97807;-64
2021/07/12 14:21:54;;;;;;;;;8.00;8.00;;;;;25.26;56.27;98671.66;6274728;27;99582;-64